Nearby METAR Reports

 

KHFD - Hartford/Brainar, Connecticut, USA
Distance from station: ESE 5mi, 8km
Updated: Fri, 19-Apr-2019 9:53pm EDT
Light rain, Overcast
Light rain, Overcast
 Wind from S
Wind: S 15 mph , 24 km/h, Gust: 22 mph , 35 km/h
Temperature: 64°F , 18°C
Dew Point: 63°F , 17°C
Humidity: 94%
Barometer: 29.79 inHg , 1008.8 hPa
Summary: Light rain
Clouds: Overcast
Visibility: 7 miles , 11 km
Cloud details: Overcast 1000 ft
2019/04/20 01:53 KHFD 200153Z 19013G19KT 7SM -RA OVC010 18/17 A2979 RMK AO2 RAB0055E16B36 CIG 008V013 SLP087 P0000 T01830167
KBDL - Windsor Locks, Connecticut, USA
Distance from station: NNE 12mi, 20km
Updated: Fri, 19-Apr-2019 9:51pm EDT
Light rain, Overcast
Light rain, Overcast
 Wind from S
Wind: S 16 mph , 26 km/h, Gust: 25 mph , 41 km/h
Temperature: 66°F , 19°C
Dew Point: 63°F , 17°C
Humidity: 88%
Barometer: 29.78 inHg , 1008.5 hPa
Summary: Light rain
Clouds: Overcast
Visibility: 8 miles , 13 km
Cloud details: Overcast 1100 ft
2019/04/20 01:51 KBDL 200151Z 18014G22KT 8SM -RA OVC011 19/17 A2978 RMK AO2 PK WND 19028/0058 RAB07 SLP085 P0000 T01890167
 
KMMK - Meriden, Connecticut, USA
Distance from station: SSW 18mi, 28km
Updated: Fri, 19-Apr-2019 9:53pm EDT
Overcast
Overcast
 Wind from S
Wind: S 8 mph , 13 km/h
Temperature: 63°F , 17°C
Dew Point: 59°F , 15°C
Humidity: 88%
Barometer: 29.80 inHg , 1009.1 hPa
Clouds: Overcast
Visibility: 8 miles , 13 km
Cloud details: Overcast 800 ft
2019/04/20 01:53 KMMK 200153Z AUTO 17007KT 8SM OVC008 17/15 A2980 RMK AO2 SLP091 T01720150
KBAF - Westfield, Massachusetts, USA
Distance from station: N 28mi, 45km
Updated: Fri, 19-Apr-2019 10:08pm EDT
Light rain, Overcast
Light rain, Overcast
 Wind from S
Wind: S 13 mph , 20 km/h, Gust: 22 mph , 35 km/h
Temperature: 64°F , 18°C
Dew Point: 61°F , 16°C
Humidity: 88%
Barometer: 29.77 inHg , 1008.1 hPa
Summary: Light rain
Clouds: Overcast
Visibility: 10 miles , 16 km
Cloud details: Overcast 1300 ft
2019/04/20 02:08 KBAF 200208Z AUTO 17011G19KT 10SM -RA OVC013 18/16 A2977 RMK AO2 P0000 T01830161
 
KIJD - Willimantic, Connecticut, USA
Distance from station: E 29mi, 46km
Updated: Fri, 19-Apr-2019 9:52pm EDT
Light rain, Overcast
Light rain, Overcast
 Wind from SSW
Wind: SSW 16 mph , 26 km/h, Gust: 26 mph , 43 km/h
Temperature: 64°F , 18°C
Dew Point: 63°F , 17°C
Humidity: 94%
Barometer: 29.83 inHg , 1010.2 hPa
Summary: Light rain
Clouds: Overcast
Visibility: 7 miles , 11 km
Cloud details: Overcast 800 ft
2019/04/20 01:52 KIJD 200152Z AUTO 20014G23KT 7SM -RA OVC008 18/17 A2983 RMK AO2 PK WND 18028/0128 RAB09 SLP098 P0003 T01830172
KOXC - Oxford/Waterbury, Connecticut, USA
Distance from station: SW 29mi, 46km
Updated: Fri, 19-Apr-2019 9:51pm EDT
Light rain, Mist, Overcast
Light rain, Mist, Overcast
 Wind from S
Wind: S 15 mph , 24 km/h, Gust: 24 mph , 39 km/h
Temperature: 61°F , 16°C
Dew Point: 61°F , 16°C
Humidity: 100%
Barometer: 29.80 inHg , 1009.1 hPa
Summary: Light rain, Mist
Clouds: Overcast
Visibility: 5 miles , 8 km
Cloud details: Overcast 400 ft
2019/04/20 01:51 KOXC 200151Z AUTO 18013G21KT 5SM -RA BR OVC004 16/16 A2980 RMK AO2 RAB47 SLP103 T01610156 PNO $
 
KSNC - Chester, Connecticut, USA
Distance from station: SSE 29mi, 47km
Updated: Fri, 19-Apr-2019 10:15pm EDT
Mist, Overcast
Mist, Overcast
 Wind from S
Wind: S 14 mph , 22 km/h, Gust: 23 mph , 37 km/h
Temperature: 63°F , 17°C
Dew Point: 63°F , 17°C
Humidity: 100%
Barometer: 29.82 inHg , 1009.8 hPa
Summary: Mist
Clouds: Overcast
Visibility: 2 miles , 3 km
Cloud details: Overcast 200 ft
2019/04/20 02:15 KSNC 200215Z AUTO 19012G20KT 2SM BR OVC002 17/17 A2982 RMK AO2
KCEF - Chicopee/Westove, Massachusetts, USA
Distance from station: NNE 32mi, 52km
Updated: Fri, 19-Apr-2019 10:19pm EDT
Overcast
Overcast
 Wind from S
Wind: S 17 mph , 28 km/h, Gust: 24 mph , 39 km/h
Temperature: 66°F , 19°C
Dew Point: 63°F , 17°C
Humidity: 88%
Barometer: 29.76 inHg , 1007.8 hPa
Clouds: Overcast
Visibility: 10 miles , 16 km
Cloud details: Overcast 1100 ft
2019/04/20 02:19 KCEF 200219Z 18015G21KT 10SM OVC011 19/17 A2976 RMK AO2A SLP083
 
KHVN - New Haven/Tweed, Connecticut, USA
Distance from station: S 35mi, 56km
Updated: Fri, 19-Apr-2019 9:53pm EDT
Mist, Overcast
Mist, Overcast
 Wind from S
Wind: S 9 mph , 15 km/h
Temperature: 59°F , 15°C
Dew Point: 57°F , 14°C
Humidity: 94%
Barometer: 29.80 inHg , 1009.1 hPa
Summary: Mist
Clouds: Overcast
Visibility: 6 miles , 10 km
Cloud details: Mostly cloudy 1200 ft
Overcast 2800 ft
2019/04/20 01:53 KHVN 200153Z 18008KT 6SM BR BKN012 OVC028 15/14 A2980 RMK AO2 SLP092 T01500139
KBDR - Bridgeport, Connecticut, USA
Distance from station: SSW 46mi, 74km
Updated: Fri, 19-Apr-2019 10:01pm EDT
Light rain, Mist, Overcast
Light rain, Mist, Overcast
 Wind from S
Wind: S 13 mph , 20 km/h
Temperature: 61°F , 16°C
Dew Point: 57°F , 14°C
Humidity: 88%
Barometer: 29.78 inHg , 1008.5 hPa
Summary: Light rain, Mist
Clouds: Overcast
Visibility: 6 miles , 10 km
Cloud details: Mostly cloudy 1200 ft
Overcast 2600 ft
2019/04/20 02:01 KBDR 200201Z AUTO 19011KT 6SM -RA BR BKN012 OVC026 16/14 A2978 RMK AO2 RAB0158 P0000 T01560139
 
KGON - Groton/New Londo, Connecticut, USA
Distance from station: SE 46mi, 75km
Updated: Fri, 19-Apr-2019 9:59pm EDT
Mist, Overcast
Mist, Overcast
 Wind from S
Wind: S 16 mph , 26 km/h
Temperature: 55°F , 13°C
Dew Point: 54°F , 12°C
Humidity: 94%
Barometer: 29.84 inHg , 1010.5 hPa
Summary: Mist
Clouds: Overcast
Visibility: 2 1/2 miles , 4 km
Cloud details: Few Clouds 700 ft
Mostly cloudy 3700 ft
Overcast 5000 ft
2019/04/20 01:59 KGON 200159Z AUTO 18014KT 2 1/2SM BR FEW007 BKN037 OVC050 13/12 A2984 RMK AO2 T01280117
KDXR - Danbury, Connecticut, USA
Distance from station: SW 47mi, 76km
Updated: Fri, 19-Apr-2019 9:53pm EDT
Rain, Mist, Overcast
Rain, Mist, Overcast
 Wind from S
Wind: S 10 mph , 17 km/h, Gust: 24 mph , 39 km/h
Temperature: 64°F , 18°C
Dew Point: 61°F , 16°C
Humidity: 88%
Barometer: 29.77 inHg , 1008.1 hPa
Summary: Rain, Mist
Clouds: Overcast
Visibility: 4 miles , 6 km
Cloud details: Overcast 900 ft
2019/04/20 01:53 KDXR 200153Z 18009G21KT 4SM RA BR OVC009 18/16 A2977 RMK AO2 RAB35 CIG 008V013 SLP079 P0002 T01780161
 
KPSF - Pittsfield, Massachusetts, USA
Distance from station: NNW 54mi, 87km
Updated: Fri, 19-Apr-2019 9:54pm EDT
Overcast
Overcast
 Wind from S
Wind: S 14 mph , 22 km/h, Gust: 23 mph , 37 km/h
Temperature: 66°F , 19°C
Dew Point: 61°F , 16°C
Humidity: 83%
Barometer: 29.73 inHg , 1006.8 hPa
Clouds: Overcast
Visibility: 10 miles , 16 km
Cloud details: Overcast 1600 ft
2019/04/20 01:54 KPSF 200154Z AUTO 18012G20KT 10SM OVC016 19/16 A2973 RMK AO2 RAE22 SLP048 P0001 T01940156
KWST - Westerly, Rhode Island, USA
Distance from station: ESE 56mi, 91km
Updated: Fri, 19-Apr-2019 10:21pm EDT
Fog, Overcast
Fog, Overcast
 Wind from S
Wind: S 12 mph , 19 km/h
Temperature: 55°F , 13°C
Dew Point: 55°F , 13°C
Humidity: 100%
Barometer: 29.86 inHg , 1011.2 hPa
Summary: Fog
Clouds: Overcast
Visibility: 1/2 mile , 0.8 km
Cloud details: Overcast 200 ft
2019/04/20 02:21 KWST 200221Z AUTO 18010KT 1/2SM FG VV002 13/13 A2986 RMK AO2 T01330133
 
KORH - Worcester, Massachusetts, USA
Distance from station: NE 57mi, 92km
Updated: Fri, 19-Apr-2019 9:54pm EDT
Light rain, Overcast
Light rain, Overcast
 Wind from SSW
Wind: SSW 16 mph , 26 km/h, Gust: 25 mph , 41 km/h
Temperature: 63°F , 17°C
Dew Point: 63°F , 17°C
Humidity: 100%
Barometer: 29.83 inHg , 1010.2 hPa
Summary: Light rain
Clouds: Overcast
Visibility: 10 miles , 16 km
Cloud details: Overcast 700 ft
2019/04/20 01:54 KORH 200154Z 20014G22KT 10SM -RA OVC007 17/17 A2983 RMK AO2 PK WND 21026/0101 RAB38 SLP098 P0000 T01720167
KPOU - Poughkeepsie, New York, USA
Distance from station: W 60mi, 96km
Updated: Fri, 19-Apr-2019 9:53pm EDT
Light rain, Overcast
Light rain, Overcast
 Wind from SSE
Wind: SSE 15 mph , 24 km/h, Gust: 24 mph , 39 km/h
Temperature: 68°F , 20°C
Dew Point: 63°F , 17°C
Humidity: 83%
Barometer: 29.70 inHg , 1005.8 hPa
Summary: Light rain
Clouds: Overcast
Visibility: 3 miles , 5 km
Cloud details: Partly cloudy 2100 ft
Mostly cloudy 3500 ft
Overcast 5000 ft
2019/04/20 01:53 KPOU 200153Z AUTO 15013G21KT 110V170 3SM -RA SCT021 BKN035 OVC050 20/17 A2970 RMK AO2 RAB37 SLP052 P0010 T02000172
 
KORE - Orange, Massachusetts, USA
Distance from station: NNE 60mi, 97km
Updated: Fri, 19-Apr-2019 9:52pm EDT
Overcast
Overcast
 Wind from S
Wind: S 16 mph , 26 km/h, Gust: 21 mph , 33 km/h
Temperature: 68°F , 20°C
Dew Point: 61°F , 16°C
Humidity: 78%
Barometer: 29.78 inHg , 1008.5 hPa
Clouds: Overcast
Visibility: 10 miles , 16 km
Cloud details: Overcast 2000 ft
2019/04/20 01:52 KORE 200152Z AUTO 17014G18KT 10SM OVC020 20/16 A2978 RMK AO2 RAB17E40 SLP084 P0000 T02000161 TSNO
KHTO - East Hampton, New York, USA
Distance from station: SSE 62mi, 99km
Updated: Fri, 19-Apr-2019 10:15pm EDT
Mist, Overcast
Mist, Overcast
 Wind from S
Wind: S 10 mph , 17 km/h, Gust: 17 mph , 28 km/h
Temperature: 55°F , 13°C
Dew Point: 55°F , 13°C
Humidity: 100%
Barometer: 29.84 inHg , 1010.5 hPa
Summary: Mist
Clouds: Overcast
Visibility: 3 miles , 5 km
Cloud details: Overcast 300 ft
2019/04/20 02:15 KHTO 200215Z AUTO 17009G15KT 3SM BR OVC003 13/13 A2984 RMK AO2 T01320130
 
KFOK - Westhampton Beac, New York, USA
Distance from station: S 63mi, 102km
Updated: Fri, 19-Apr-2019 10:13pm EDT
Mist, Overcast
Mist, Overcast
 Wind from S
Wind: S 13 mph , 20 km/h, Gust: 23 mph , 37 km/h
Temperature: 57°F , 14°C
Dew Point: 55°F , 13°C
Humidity: 94%
Barometer: 29.83 inHg , 1010.2 hPa
Summary: Mist
Clouds: Overcast
Visibility: 3 miles , 5 km
Cloud details: Overcast 200 ft
2019/04/20 02:13 KFOK 200213Z 18011G20KT 3SM BR OVC002 14/13 A2983 RMK AO2 T01390133
KMTP - Montauk, New York, USA
Distance from station: SE 64mi, 104km
Updated: Fri, 19-Apr-2019 9:54pm EDT

 Wind from S
Wind: S 12 mph , 19 km/h, Gust: 22 mph , 35 km/h
Temperature: 55°F , 13°C
Dew Point: 54°F , 12°C
Humidity: 94%
Barometer: 29.86 inHg , 1011.2 hPa
2019/04/20 01:54 KMTP 200154Z AUTO 18010G19KT 13/12 A2986 RMK AO1 SLP112 T01330122